Time;durP1;ratioP1;P1;durP2;ratioP2;P2;SDS_P1;SDS_P2;PMS_P1;PMS_P2;Temp;Humidity;BMP_temperature;BMP_pressure;BME280_temperature;BME280_humidity;BME280_pressure;Samples;Min_cycle;Max_cycle;Signal;HPM_P1;HPM_P2
2023/12/10 00:00:58;;;;;;;12.68;1.77;;;11.00;99.90;;;;;;5073800;28;20031;-75
2023/12/10 00:03:26;;;;;;;18.92;2.60;;;11.00;99.90;;;;;;5072394;28;20036;-75
2023/12/10 00:05:52;;;;;;;21.42;3.08;;;11.00;99.90;;;;;;5072491;28;20111;-75
2023/12/10 00:08:20;;;;;;;18.77;3.22;;;11.00;99.90;;;;;;5064711;28;20123;-75
2023/12/10 00:10:46;;;;;;;37.17;3.47;;;11.00;99.90;;;;;;5073416;28;20029;-75
2023/12/10 00:13:12;;;;;;;2.40;1.52;;;11.00;99.90;;;;;;5055457;28;20032;-75
2023/12/10 00:15:38;;;;;;;9.63;3.03;;;11.00;99.90;;;;;;5073537;28;20036;-75
2023/12/10 00:18:05;;;;;;;9.50;2.63;;;11.10;99.90;;;;;;5073586;28;20108;-75
2023/12/10 00:20:31;;;;;;;3.00;0.90;;;11.10;99.90;;;;;;5072052;28;20032;-75
2023/12/10 00:22:57;;;;;;;5.45;2.03;;;11.10;99.90;;;;;;5073337;28;20036;-75
2023/12/10 00:25:25;;;;;;;2.13;1.38;;;11.10;99.90;;;;;;5073285;28;20032;-75
2023/12/10 00:27:51;;;;;;;23.60;3.95;;;11.10;99.90;;;;;;5073061;28;20056;-75
2023/12/10 00:30:17;;;;;;;8.55;2.55;;;11.10;99.90;;;;;;5073499;28;20039;-75
2023/12/10 00:32:43;;;;;;;17.98;3.55;;;11.00;99.90;;;;;;5072875;28;20017;-73
2023/12/10 00:35:09;;;;;;;4.18;1.85;;;11.10;99.90;;;;;;5073357;28;20423;-73
2023/12/10 00:37:35;;;;;;;15.48;3.35;;;11.10;99.90;;;;;;5072892;28;20028;-73
2023/12/10 00:40:03;;;;;;;18.27;2.10;;;11.20;99.90;;;;;;5064785;28;20037;-73
2023/12/10 00:42:29;;;;;;;19.27;3.55;;;11.20;99.90;;;;;;5071731;28;20058;-73
2023/12/10 00:44:55;;;;;;;14.20;1.40;;;11.10;99.90;;;;;;5073273;28;20380;-73
2023/12/10 00:47:21;;;;;;;19.92;4.50;;;11.20;99.90;;;;;;5073089;28;20032;-73
2023/12/10 00:49:47;;;;;;;6.88;0.85;;;11.20;99.90;;;;;;5072598;28;20504;-73
2023/12/10 00:52:13;;;;;;;11.45;2.20;;;11.10;99.90;;;;;;5057599;28;20024;-73
2023/12/10 00:54:39;;;;;;;20.30;2.65;;;11.10;99.90;;;;;;5072971;28;20025;-73
2023/12/10 00:57:05;;;;;;;9.93;2.00;;;11.10;99.90;;;;;;5071571;28;20111;-73
2023/12/10 00:59:31;;;;;;;24.40;3.63;;;11.10;99.90;;;;;;5072754;28;20025;-73
2023/12/10 01:01:57;;;;;;;10.82;1.35;;;11.10;99.90;;;;;;5072178;28;20043;-73
2023/12/10 01:04:23;;;;;;;1.92;0.77;;;11.10;99.90;;;;;;5063578;28;20032;-73
2023/12/10 01:06:50;;;;;;;3.08;1.02;;;11.10;99.90;;;;;;5071709;28;20112;-73
2023/12/10 01:09:15;;;;;;;5.15;0.75;;;11.10;99.90;;;;;;5072357;28;20028;-73
2023/12/10 01:11:42;;;;;;;7.10;2.10;;;11.10;99.90;;;;;;5072604;28;20036;-73
2023/12/10 01:14:07;;;;;;;6.45;1.98;;;11.10;99.90;;;;;;5072911;28;20032;-73
2023/12/10 01:16:33;;;;;;;11.60;3.38;;;11.10;99.90;;;;;;5072906;28;20504;-73
2023/12/10 01:18:59;;;;;;;4.13;1.63;;;11.10;99.90;;;;;;5072429;28;20027;-73
2023/12/10 01:21:25;;;;;;;9.82;1.45;;;11.00;99.90;;;;;;5071380;28;20064;-73
2023/12/10 01:23:54;;;;;;;12.25;2.42;;;10.90;99.90;;;;;;5072203;28;20397;-73
2023/12/10 01:26:21;;;;;;;8.50;2.78;;;11.00;99.90;;;;;;5071313;28;20036;-73
2023/12/10 01:28:47;;;;;;;8.50;1.00;;;11.00;99.90;;;;;;5071312;28;20087;-73
2023/12/10 01:31:13;;;;;;;16.90;3.50;;;11.00;99.90;;;;;;5071339;28;20493;-73
2023/12/10 01:33:42;;;;;;;25.85;3.10;;;11.00;99.90;;;;;;5072262;28;20500;-72
2023/12/10 01:36:08;;;;;;;3.67;1.23;;;11.00;99.90;;;;;;5071191;28;20450;-73
2023/12/10 01:38:34;;;;;;;4.78;1.77;;;11.10;99.90;;;;;;5072247;28;20020;-73
2023/12/10 01:41:00;;;;;;;37.10;3.30;;;11.00;99.90;;;;;;5072240;28;20036;-73
2023/12/10 01:43:26;;;;;;;4.68;1.10;;;11.10;99.90;;;;;;5072461;28;20024;-73
2023/12/10 01:45:53;;;;;;;16.00;2.95;;;11.00;99.90;;;;;;5072384;28;20515;-73
2023/12/10 01:48:20;;;;;;;19.27;2.55;;;11.10;99.90;;;;;;5071809;28;20040;-73
2023/12/10 01:50:47;;;;;;;8.27;2.13;;;11.10;99.90;;;;;;5065596;28;20029;-73
2023/12/10 01:53:14;;;;;;;4.18;1.35;;;11.10;99.90;;;;;;5065199;28;20073;-73
2023/12/10 01:55:41;;;;;;;3.65;0.98;;;11.00;99.90;;;;;;5072163;28;20031;-73
2023/12/10 01:58:09;;;;;;;10.85;2.10;;;11.10;99.90;;;;;;5072377;28;20028;-72
2023/12/10 02:00:36;;;;;;;20.75;2.72;;;11.10;99.90;;;;;;5054082;28;20388;-72
2023/12/10 02:03:03;;;;;;;8.73;5.82;;;11.10;99.90;;;;;;5072184;28;20040;-72
2023/12/10 02:05:29;;;;;;;8.32;2.05;;;11.10;99.90;;;;;;5070602;28;20056;-73
2023/12/10 02:07:55;;;;;;;18.08;3.65;;;11.00;99.90;;;;;;5072737;28;20024;-73
2023/12/10 02:10:21;;;;;;;10.85;1.20;;;11.00;99.90;;;;;;5072109;28;20496;-73
2023/12/10 02:12:48;;;;;;;15.60;2.97;;;11.10;99.90;;;;;;5068990;28;20414;-73
2023/12/10 02:15:16;;;;;;;14.18;1.33;;;11.10;99.90;;;;;;5054492;28;20029;-73
2023/12/10 02:17:43;;;;;;;11.55;1.77;;;11.10;99.90;;;;;;5055724;28;20021;-73
2023/12/10 02:20:12;;;;;;;14.38;1.33;;;11.10;99.90;;;;;;5055448;28;20033;-72
2023/12/10 02:22:47;;;;;;;10.07;2.90;;;11.10;99.90;;;;;;5055723;28;20111;-73
2023/12/10 02:25:14;;;;;;;2.05;1.48;;;11.10;99.90;;;;;;5055641;28;20150;-73
2023/12/10 02:27:41;;;;;;;0.85;0.50;;;11.10;99.90;;;;;;5055835;28;20032;-73
2023/12/10 02:30:09;;;;;;;6.85;1.77;;;11.10;99.90;;;;;;5055415;28;20040;-72
2023/12/10 02:32:35;;;;;;;16.48;1.98;;;11.10;99.90;;;;;;5055794;28;20029;-73
2023/12/10 02:35:00;;;;;;;19.58;2.97;;;11.10;99.90;;;;;;5055092;28;20070;-73
2023/12/10 02:37:26;;;;;;;12.02;2.83;;;11.10;99.90;;;;;;5054281;28;20187;-72
2023/12/10 02:39:52;;;;;;;11.68;2.80;;;11.10;99.90;;;;;;5055483;28;20064;-72
2023/12/10 02:42:18;;;;;;;11.15;2.38;;;11.10;99.90;;;;;;5055399;28;20477;-72
2023/12/10 02:44:43;;;;;;;3.05;1.27;;;11.20;99.90;;;;;;5055184;28;20124;-72
2023/12/10 02:47:09;;;;;;;10.85;1.65;;;11.10;99.90;;;;;;5055291;28;20470;-72
2023/12/10 02:49:35;;;;;;;11.75;2.67;;;11.10;99.90;;;;;;5054916;28;20063;-72
2023/12/10 02:52:01;;;;;;;16.00;2.88;;;11.10;99.90;;;;;;5055252;28;20525;-72
2023/12/10 02:54:27;;;;;;;20.02;2.50;;;11.10;99.90;;;;;;5053889;28;20024;-72
2023/12/10 02:56:52;;;;;;;7.32;1.75;;;11.10;99.90;;;;;;5055094;28;20025;-72
2023/12/10 02:59:18;;;;;;;15.13;2.30;;;11.00;99.90;;;;;;5053823;28;20389;-72
2023/12/10 03:01:44;;;;;;;15.50;1.48;;;11.10;99.90;;;;;;5037125;28;20041;-72
2023/12/10 03:04:10;;;;;;;23.55;1.55;;;11.10;99.90;;;;;;5054564;28;20036;-72
2023/12/10 03:06:36;;;;;;;9.45;2.28;;;11.10;99.90;;;;;;5054774;28;20433;-72
2023/12/10 03:09:02;;;;;;;11.98;1.98;;;11.10;99.90;;;;;;5055101;28;20389;-72
2023/12/10 03:11:27;;;;;;;9.65;2.03;;;11.00;99.90;;;;;;5053399;28;20052;-72
2023/12/10 03:13:53;;;;;;;9.95;2.85;;;11.10;99.90;;;;;;5054719;28;20531;-72
2023/12/10 03:16:19;;;;;;;1.55;0.40;;;11.10;99.90;;;;;;5054652;28;20033;-72
2023/12/10 03:18:45;;;;;;;18.30;2.17;;;11.10;99.90;;;;;;5054562;28;20082;-72
2023/12/10 03:21:10;;;;;;;8.60;2.00;;;11.00;99.90;;;;;;5053331;28;20055;-72
2023/12/10 03:23:36;;;;;;;8.07;1.63;;;11.10;99.90;;;;;;5053147;28;20028;-72
2023/12/10 03:26:02;;;;;;;5.93;1.90;;;11.10;99.90;;;;;;5053825;28;20028;-72
2023/12/10 03:28:28;;;;;;;20.85;1.67;;;11.20;99.90;;;;;;5054723;28;22165;-72
2023/12/10 03:30:54;;;;;;;6.97;2.00;;;11.10;99.90;;;;;;5054562;28;20060;-72
2023/12/10 03:33:19;;;;;;;9.88;1.88;;;11.10;99.90;;;;;;5054342;28;20412;-72
2023/12/10 03:35:45;;;;;;;5.53;1.73;;;11.10;99.90;;;;;;5054119;28;20028;-72
2023/12/10 03:38:11;;;;;;;18.75;2.30;;;11.10;99.90;;;;;;5054618;28;20032;-72
2023/12/10 03:40:38;;;;;;;4.55;0.85;;;11.10;99.90;;;;;;5052659;28;20036;-72
2023/12/10 03:43:03;;;;;;;4.80;1.52;;;11.10;99.90;;;;;;5054443;28;20033;-72
2023/12/10 03:45:31;;;;;;;18.08;3.10;;;11.00;99.90;;;;;;5054227;28;20054;-72
2023/12/10 03:47:56;;;;;;;12.13;1.85;;;11.00;99.90;;;;;;5053934;28;20114;-72
2023/12/10 03:50:22;;;;;;;10.82;1.90;;;10.90;99.90;;;;;;5054091;28;20501;-72
2023/12/10 03:52:48;;;;;;;17.35;2.35;;;11.00;99.90;;;;;;5053866;28;20029;-72
2023/12/10 03:55:14;;;;;;;10.45;1.98;;;11.00;99.90;;;;;;5052958;28;20064;-72
2023/12/10 03:57:40;;;;;;;7.35;1.90;;;11.00;99.90;;;;;;5052372;28;20392;-72
2023/12/10 04:00:06;;;;;;;8.40;2.85;;;11.00;99.90;;;;;;5054194;28;20029;-72
2023/12/10 04:02:38;;;;;;;13.15;1.55;;;10.90;99.90;;;;;;5053397;28;20524;-72
2023/12/10 04:05:04;;;;;;;11.73;1.25;;;11.00;99.90;;;;;;5052608;28;20552;-71
2023/12/10 04:07:30;;;;;;;6.72;2.05;;;11.00;99.90;;;;;;5052460;28;20029;-72
2023/12/10 04:09:57;;;;;;;18.50;3.45;;;10.90;99.90;;;;;;5052378;28;20424;-72
2023/12/10 04:12:23;;;;;;;13.35;2.65;;;11.10;99.90;;;;;;5052576;28;20058;-72
2023/12/10 04:14:48;;;;;;;20.70;2.47;;;11.00;99.90;;;;;;5053636;28;20539;-72
2023/12/10 04:17:14;;;;;;;8.25;1.73;;;10.90;99.90;;;;;;5053465;28;20108;-72
2023/12/10 04:19:41;;;;;;;13.95;2.40;;;10.90;99.90;;;;;;5053162;28;20132;-72
2023/12/10 04:22:07;;;;;;;23.20;2.15;;;10.90;99.90;;;;;;5053136;28;20078;-72
2023/12/10 04:24:33;;;;;;;11.70;3.00;;;10.90;99.90;;;;;;5053335;28;20052;-72
2023/12/10 04:26:59;;;;;;;10.00;1.35;;;11.00;99.90;;;;;;5053148;28;20385;-72
2023/12/10 04:29:24;;;;;;;3.22;1.25;;;11.00;99.90;;;;;;5053404;28;20472;-72
2023/12/10 04:31:50;;;;;;;8.20;2.17;;;11.00;99.90;;;;;;5051478;28;20060;-72
2023/12/10 04:34:16;;;;;;;9.35;3.00;;;11.00;99.90;;;;;;5053148;28;20047;-72
2023/12/10 04:36:42;;;;;;;12.05;3.22;;;11.00;99.90;;;;;;5051107;28;20091;-72
2023/12/10 04:39:08;;;;;;;14.98;2.25;;;11.00;99.90;;;;;;5051507;28;20505;-72
2023/12/10 04:41:34;;;;;;;12.90;4.03;;;11.00;99.90;;;;;;5052827;28;20040;-72
2023/12/10 04:44:00;;;;;;;15.88;2.25;;;11.00;99.90;;;;;;5052684;28;20065;-71
2023/12/10 04:46:26;;;;;;;8.10;1.05;;;10.90;99.90;;;;;;5042109;28;20033;-72
2023/12/10 04:48:52;;;;;;;2.25;1.10;;;11.00;99.90;;;;;;5051735;28;20029;-71
2023/12/10 04:51:18;;;;;;;5.80;1.77;;;10.90;99.90;;;;;;5050565;28;20025;-72
2023/12/10 04:53:44;;;;;;;10.52;2.88;;;10.90;99.90;;;;;;5052022;28;20031;-72
2023/12/10 04:56:10;;;;;;;13.82;1.65;;;10.90;99.90;;;;;;5052933;28;20104;-72
2023/12/10 04:58:35;;;;;;;11.50;1.98;;;10.90;99.90;;;;;;5051365;28;20025;-72
2023/12/10 05:01:02;;;;;;;9.57;2.03;;;10.90;99.90;;;;;;5052405;28;20371;-72
2023/12/10 05:03:28;;;;;;;12.52;5.38;;;10.90;99.90;;;;;;5052519;28;20115;-72
2023/12/10 05:05:54;;;;;;;10.50;1.83;;;10.90;99.90;;;;;;5045318;28;20591;-71
2023/12/10 05:08:19;;;;;;;2.95;1.48;;;10.90;99.90;;;;;;5052689;28;20040;-72
2023/12/10 05:10:45;;;;;;;1.77;1.05;;;10.80;99.90;;;;;;5028832;28;20065;-72
2023/12/10 05:13:11;;;;;;;6.50;1.00;;;10.80;99.90;;;;;;5052509;28;20200;-72
2023/12/10 05:15:37;;;;;;;0.82;0.47;;;10.70;99.90;;;;;;5052283;28;20456;-72
2023/12/10 05:18:03;;;;;;;19.42;1.65;;;10.70;99.90;;;;;;5052492;28;20047;-72
2023/12/10 05:20:29;;;;;;;8.80;1.80;;;10.70;99.90;;;;;;5052581;28;20048;-72
2023/12/10 05:22:55;;;;;;;4.00;1.25;;;10.50;99.90;;;;;;5052264;28;20055;-72
2023/12/10 05:25:21;;;;;;;6.22;1.65;;;10.60;99.90;;;;;;5050966;28;20025;-71
2023/12/10 05:27:46;;;;;;;13.38;3.60;;;10.50;99.90;;;;;;5052548;28;20071;-72
2023/12/10 05:30:12;;;;;;;4.95;1.50;;;10.50;99.90;;;;;;5050715;28;20078;-72
2023/12/10 05:32:38;;;;;;;15.40;4.50;;;10.50;99.90;;;;;;5052459;28;20443;-72
2023/12/10 05:35:05;;;;;;;26.10;3.53;;;10.50;99.90;;;;;;5050901;28;20135;-72
2023/12/10 05:37:31;;;;;;;21.70;3.88;;;10.50;99.90;;;;;;5051154;28;20029;-72
2023/12/10 05:39:57;;;;;;;27.27;3.78;;;10.40;99.90;;;;;;5052181;28;20121;-72
2023/12/10 05:42:23;;;;;;;6.55;1.30;;;10.50;99.90;;;;;;5052059;28;20429;-72
2023/12/10 05:44:49;;;;;;;18.65;5.53;;;10.50;99.90;;;;;;5033992;28;20025;-72
2023/12/10 05:47:15;;;;;;;12.57;3.60;;;10.50;99.90;;;;;;5052154;28;20501;-72
2023/12/10 05:49:41;;;;;;;7.82;1.23;;;10.50;99.90;;;;;;5054575;28;20080;-72
2023/12/10 05:52:06;;;;;;;12.82;1.83;;;10.60;99.90;;;;;;5056162;28;20049;-72
2023/12/10 05:54:32;;;;;;;8.50;3.28;;;10.60;99.90;;;;;;5055051;28;20021;-72
2023/12/10 05:56:58;;;;;;;2.42;0.77;;;10.60;99.90;;;;;;5056475;28;20040;-72
2023/12/10 05:59:24;;;;;;;13.07;3.22;;;10.40;99.90;;;;;;5054534;28;20063;-72
2023/12/10 06:01:50;;;;;;;20.17;3.10;;;10.40;99.90;;;;;;5054576;28;20111;-72
2023/12/10 06:04:15;;;;;;;16.83;2.55;;;10.40;99.90;;;;;;5055876;28;20098;-72
2023/12/10 06:06:41;;;;;;;1.30;0.95;;;10.30;99.90;;;;;;5055623;28;20031;-72
2023/12/10 06:09:09;;;;;;;12.93;4.32;;;10.30;99.90;;;;;;5055405;28;20195;-72
2023/12/10 06:11:35;;;;;;;9.70;2.58;;;10.30;99.90;;;;;;5056190;28;20472;-72
2023/12/10 06:14:00;;;;;;;0.05;0.05;;;10.30;99.90;;;;;;5055707;28;20034;-72
2023/12/10 06:16:26;;;;;;;6.05;1.77;;;10.30;99.90;;;;;;5055954;28;20021;-72
2023/12/10 06:18:52;;;;;;;8.40;1.98;;;10.30;99.90;;;;;;5055911;28;20385;-72
2023/12/10 06:21:18;;;;;;;4.00;1.95;;;10.20;99.90;;;;;;5055652;28;20113;-72
2023/12/10 06:23:43;;;;;;;18.20;2.22;;;10.20;99.90;;;;;;5055707;28;20107;-71
2023/12/10 06:26:09;;;;;;;6.85;2.42;;;10.20;99.90;;;;;;5055823;28;20025;-72
2023/12/10 06:28:35;;;;;;;10.82;2.75;;;10.20;99.90;;;;;;5055441;28;20547;-72
2023/12/10 06:31:01;;;;;;;5.40;1.35;;;10.20;99.90;;;;;;5054485;28;20039;-71
2023/12/10 06:33:27;;;;;;;3.13;1.52;;;10.10;99.90;;;;;;5054593;28;20075;-72
2023/12/10 06:35:52;;;;;;;11.20;2.50;;;10.10;99.90;;;;;;5055217;28;20485;-72
2023/12/10 06:38:18;;;;;;;8.05;2.65;;;10.10;99.90;;;;;;5055826;28;20025;-72
2023/12/10 06:40:44;;;;;;;14.95;1.77;;;10.10;99.90;;;;;;5055243;28;20103;-72
2023/12/10 06:43:10;;;;;;;1.75;0.47;;;10.10;99.90;;;;;;5053899;28;20033;-72
2023/12/10 06:45:37;;;;;;;0.50;0.38;;;10.10;99.90;;;;;;5055245;28;20489;-72
2023/12/10 06:48:03;;;;;;;20.92;4.50;;;10.10;99.90;;;;;;5054142;28;20068;-72
2023/12/10 06:50:30;;;;;;;7.88;1.08;;;10.10;99.90;;;;;;5055323;28;20466;-72
2023/12/10 06:52:56;;;;;;;10.85;4.88;;;10.00;99.90;;;;;;5055227;28;20512;-72
2023/12/10 06:55:22;;;;;;;7.18;1.52;;;10.00;99.90;;;;;;5054955;28;20021;-72
2023/12/10 06:57:48;;;;;;;1.95;1.35;;;10.00;99.90;;;;;;5055145;28;20021;-72
2023/12/10 07:00:14;;;;;;;8.70;2.35;;;10.10;99.90;;;;;;5052640;28;20508;-72
2023/12/10 07:02:40;;;;;;;4.15;1.75;;;10.10;99.90;;;;;;5054858;28;20029;-72
2023/12/10 07:05:06;;;;;;;0.90;0.20;;;10.00;99.90;;;;;;5054949;28;20037;-72
2023/12/10 07:07:32;;;;;;;3.97;0.55;;;10.00;99.90;;;;;;5053758;28;20040;-72
2023/12/10 07:09:58;;;;;;;11.40;4.72;;;10.00;99.90;;;;;;5054793;28;20017;-72
2023/12/10 07:12:24;;;;;;;6.20;3.42;;;9.90;99.90;;;;;;5054900;28;20394;-72
2023/12/10 07:14:50;;;;;;;2.40;0.65;;;10.00;99.90;;;;;;5054927;28;20021;-72
2023/12/10 07:17:15;;;;;;;4.60;2.38;;;10.00;99.90;;;;;;5053515;28;20098;-72
2023/12/10 07:19:41;;;;;;;1.70;0.75;;;10.00;99.90;;;;;;5054811;28;20017;-72
2023/12/10 07:22:07;;;;;;;2.08;0.60;;;10.00;99.90;;;;;;5053982;28;20063;-72
2023/12/10 07:24:33;;;;;;;5.10;1.95;;;10.00;99.90;;;;;;5052922;28;20450;-72
2023/12/10 07:27:01;;;;;;;4.85;2.75;;;10.00;99.90;;;;;;5053016;28;20464;-72
2023/12/10 07:29:27;;;;;;;14.35;1.50;;;10.00;99.90;;;;;;5054698;28;20396;-72
2023/12/10 07:31:53;;;;;;;22.67;3.50;;;9.90;99.90;;;;;;5052809;28;20047;-72
2023/12/10 07:34:19;;;;;;;14.48;1.92;;;9.90;99.90;;;;;;5054415;28;20032;-72
2023/12/10 07:36:46;;;;;;;12.15;2.00;;;9.90;99.90;;;;;;5054431;28;20450;-72
2023/12/10 07:39:13;;;;;;;16.48;6.53;;;9.90;99.90;;;;;;5054071;28;20035;-72
2023/12/10 07:41:39;;;;;;;101.82;5.03;;;9.90;99.90;;;;;;5054181;28;20036;-72
2023/12/10 07:44:04;;;;;;;14.60;2.20;;;9.80;99.90;;;;;;5054139;28;20021;-72
2023/12/10 07:46:30;;;;;;;13.32;3.45;;;9.80;99.90;;;;;;5054276;28;20076;-71
2023/12/10 07:48:56;;;;;;;11.75;2.85;;;9.90;99.90;;;;;;5054272;28;20040;-72
2023/12/10 07:51:23;;;;;;;8.95;1.73;;;9.80;99.90;;;;;;5060175;28;20020;-72
2023/12/10 07:53:48;;;;;;;9.50;3.28;;;9.80;99.90;;;;;;5058368;28;20021;-72
2023/12/10 07:56:14;;;;;;;4.60;2.50;;;9.80;99.90;;;;;;5055462;28;20041;-72
2023/12/10 07:58:40;;;;;;;7.93;2.47;;;9.80;99.90;;;;;;5056473;28;20048;-72
2023/12/10 08:01:09;;;;;;;6.20;2.80;;;9.80;99.90;;;;;;5060799;28;20031;-72
2023/12/10 08:03:36;;;;;;;9.30;1.90;;;9.80;99.90;;;;;;5064852;28;20036;-72
2023/12/10 08:06:02;;;;;;;14.55;3.67;;;10.00;99.90;;;;;;5057487;28;20017;-72
2023/12/10 08:08:28;;;;;;;18.40;1.80;;;9.90;99.90;;;;;;5052993;28;20114;-72
2023/12/10 08:10:54;;;;;;;5.97;1.98;;;9.90;99.90;;;;;;5066106;28;20047;-72
2023/12/10 08:13:20;;;;;;;23.42;0.85;;;9.90;99.90;;;;;;5064990;28;20029;-72
2023/12/10 08:15:45;;;;;;;3.75;1.38;;;9.90;99.90;;;;;;5064082;28;20039;-72
2023/12/10 08:18:11;;;;;;;10.02;1.45;;;9.80;99.90;;;;;;5054734;28;20033;-72
2023/12/10 08:20:37;;;;;;;14.18;2.78;;;9.90;99.90;;;;;;5051919;28;20032;-72
2023/12/10 08:23:03;;;;;;;4.47;1.55;;;9.90;99.90;;;;;;5053144;28;20315;-72
2023/12/10 08:25:29;;;;;;;10.70;2.45;;;10.00;99.90;;;;;;5056418;28;20013;-72
2023/12/10 08:27:55;;;;;;;15.23;1.83;;;10.00;99.90;;;;;;5066751;28;20465;-72
2023/12/10 08:30:21;;;;;;;2.58;1.20;;;10.10;99.90;;;;;;5060799;28;20025;-72
2023/12/10 08:32:47;;;;;;;3.13;1.08;;;10.00;99.90;;;;;;5057156;28;20071;-71
2023/12/10 08:35:13;;;;;;;19.90;1.35;;;10.10;99.90;;;;;;5056115;28;20112;-72
2023/12/10 08:37:39;;;;;;;3.83;1.33;;;10.20;99.90;;;;;;5069141;28;20021;-72
2023/12/10 08:40:05;;;;;;;8.77;1.85;;;10.30;99.90;;;;;;5066347;28;20021;-72
2023/12/10 08:42:31;;;;;;;0.15;0.15;;;10.30;99.90;;;;;;5058113;28;20047;-72
2023/12/10 08:44:58;;;;;;;0.40;0.28;;;10.20;99.90;;;;;;5055951;28;20036;-72
2023/12/10 08:47:24;;;;;;;15.30;1.95;;;10.30;99.90;;;;;;5055233;28;20544;-72
2023/12/10 08:49:51;;;;;;;6.00;0.20;;;10.40;99.90;;;;;;5060089;28;20031;-72
2023/12/10 08:52:17;;;;;;;15.10;3.55;;;10.50;99.90;;;;;;5059675;28;20040;-72
2023/12/10 08:54:43;;;;;;;14.52;2.30;;;10.50;99.90;;;;;;5057085;28;20021;-72
2023/12/10 08:57:08;;;;;;;7.38;1.67;;;10.50;99.90;;;;;;5061950;28;20028;-72
2023/12/10 08:59:34;;;;;;;5.38;0.70;;;10.70;99.90;;;;;;5056822;28;20017;-72
2023/12/10 09:02:00;;;;;;;16.75;5.10;;;10.70;99.90;;;;;;5061323;28;20485;-72
2023/12/10 09:04:26;;;;;;;3.75;1.33;;;10.70;99.90;;;;;;5056824;28;20125;-72
2023/12/10 09:06:52;;;;;;;12.48;1.95;;;10.80;99.90;;;;;;5058722;28;20024;-72
2023/12/10 09:09:17;;;;;;;6.22;2.15;;;10.90;99.90;;;;;;5062921;28;20013;-72
2023/12/10 09:11:43;;;;;;;17.85;1.80;;;11.00;99.90;;;;;;5062586;28;20389;-73
2023/12/10 09:14:11;;;;;;;5.40;2.33;;;11.10;99.90;;;;;;5057796;28;20047;-73
2023/12/10 09:16:37;;;;;;;0.55;0.30;;;11.10;99.90;;;;;;5060532;28;20059;-73
2023/12/10 09:19:03;;;;;;;0.63;0.47;;;11.20;99.90;;;;;;5039484;28;20025;-73
2023/12/10 09:21:29;;;;;;;3.65;1.33;;;11.30;99.90;;;;;;5053181;28;20028;-73
2023/12/10 09:23:56;;;;;;;1.95;1.77;;;11.30;99.90;;;;;;5051095;28;20033;-73
2023/12/10 09:26:22;;;;;;;7.45;2.35;;;11.40;99.90;;;;;;5062384;28;20036;-73
2023/12/10 09:28:48;;;;;;;5.78;0.30;;;11.40;99.90;;;;;;5050828;28;20020;-72
2023/12/10 09:31:14;;;;;;;0.52;0.52;;;11.40;99.90;;;;;;5062835;28;20043;-72
2023/12/10 09:33:39;;;;;;;2.72;1.13;;;11.50;99.90;;;;;;5064629;28;20116;-72
2023/12/10 09:36:05;;;;;;;10.45;2.75;;;11.50;99.90;;;;;;5067457;28;20041;-73
2023/12/10 09:38:31;;;;;;;4.45;0.98;;;11.70;99.90;;;;;;5060642;28;20036;-72
2023/12/10 09:40:57;;;;;;;1.70;1.60;;;11.80;99.90;;;;;;5058056;28;20037;-73
2023/12/10 09:43:23;;;;;;;7.68;2.03;;;12.00;99.90;;;;;;5060715;28;20106;-72
2023/12/10 09:45:49;;;;;;;11.30;1.38;;;12.00;99.90;;;;;;5052614;28;20412;-72
2023/12/10 09:48:16;;;;;;;0.50;0.50;;;12.20;99.90;;;;;;5054581;28;20116;-72
2023/12/10 09:50:42;;;;;;;3.13;1.25;;;12.30;99.90;;;;;;5061115;28;20099;-72
2023/12/10 09:53:08;;;;;;;3.35;0.73;;;12.00;99.90;;;;;;5060292;28;20461;-71
2023/12/10 09:55:35;;;;;;;38.20;3.17;;;11.80;99.90;;;;;;5057018;28;20016;-71
2023/12/10 09:58:02;;;;;;;9.45;1.65;;;12.10;99.90;;;;;;5051401;28;20098;-71
2023/12/10 10:00:28;;;;;;;5.63;3.22;;;12.10;99.90;;;;;;5062881;28;20021;-71
2023/12/10 10:03:03;;;;;;;6.18;1.05;;;12.30;99.90;;;;;;5053807;28;20048;-71
2023/12/10 10:05:29;;;;;;;4.50;2.05;;;12.60;99.90;;;;;;5064845;28;20039;-71
2023/12/10 10:07:55;;;;;;;11.85;1.48;;;12.70;99.90;;;;;;5051723;28;20029;-71
2023/12/10 10:10:22;;;;;;;7.85;1.92;;;12.70;99.90;;;;;;5057766;28;20056;-71
2023/12/10 10:12:48;;;;;;;0.50;0.50;;;12.90;99.90;;;;;;5062027;28;20025;-71
2023/12/10 10:15:23;;;;;;;8.77;1.15;;;12.90;99.90;;;;;;5060399;28;20036;-71
2023/12/10 10:17:49;;;;;;;7.68;1.98;;;12.70;99.90;;;;;;5056532;28;20025;-71
2023/12/10 10:20:16;;;;;;;51.28;5.35;;;13.10;99.90;;;;;;5051263;28;20025;-71
2023/12/10 10:22:42;;;;;;;1.33;1.23;;;13.00;99.90;;;;;;5053340;28;20047;-71
2023/12/10 10:25:08;;;;;;;3.92;0.63;;;12.90;99.90;;;;;;5052273;28;20029;-71
2023/12/10 10:27:34;;;;;;;4.50;1.85;;;12.70;99.90;;;;;;5065129;28;20020;-71
2023/12/10 10:30:00;;;;;;;4.60;3.55;;;12.50;99.90;;;;;;5054400;28;20120;-71
2023/12/10 10:32:28;;;;;;;5.75;1.80;;;12.60;99.90;;;;;;5049086;28;20021;-71
2023/12/10 10:34:55;;;;;;;10.32;1.08;;;12.40;99.90;;;;;;5053546;28;20052;-71
2023/12/10 10:37:20;;;;;;;0.30;0.08;;;12.20;99.90;;;;;;5055040;28;20393;-71
2023/12/10 10:39:50;;;;;;;9.35;2.42;;;12.20;99.90;;;;;;5054086;28;20025;-71
2023/12/10 10:42:19;;;;;;;3.22;1.52;;;12.60;99.90;;;;;;5055288;28;20056;-71
2023/12/10 10:44:46;;;;;;;3.40;1.30;;;12.70;99.90;;;;;;5055066;28;20120;-71
2023/12/10 10:47:12;;;;;;;8.48;2.80;;;12.80;99.90;;;;;;5055028;28;20044;-71
2023/12/10 10:49:45;;;;;;;14.68;1.45;;;12.70;99.90;;;;;;5053717;28;20067;-71
2023/12/10 10:52:20;;;;;;;13.75;2.33;;;12.40;99.90;;;;;;5054745;28;20029;-71
2023/12/10 10:54:46;;;;;;;0.47;0.35;;;12.30;99.90;;;;;;5063067;28;20032;-71
2023/12/10 10:57:13;;;;;;;2.75;1.20;;;12.40;99.90;;;;;;5054725;28;20025;-71
2023/12/10 10:59:38;;;;;;;13.13;2.05;;;12.30;99.90;;;;;;5054275;28;20029;-71
2023/12/10 11:02:08;;;;;;;1.35;0.73;;;12.20;99.90;;;;;;5054097;28;20036;-71
2023/12/10 11:04:38;;;;;;;5.15;1.88;;;12.20;99.90;;;;;;5053661;28;20025;-71
2023/12/10 11:07:05;;;;;;;6.25;2.25;;;12.20;99.90;;;;;;5071495;28;20037;-72
2023/12/10 11:09:31;;;;;;;13.05;2.28;;;12.30;99.90;;;;;;5072725;28;20091;-72
2023/12/10 11:11:58;;;;;;;0.55;0.45;;;12.50;99.90;;;;;;5062411;28;20033;-71
2023/12/10 11:14:25;;;;;;;12.48;2.13;;;12.40;99.90;;;;;;5055108;28;20057;-72
2023/12/10 11:17:03;;;;;;;10.05;2.47;;;12.50;99.90;;;;;;5054267;28;20044;-71
2023/12/10 11:19:32;;;;;;;21.98;3.83;;;12.20;99.90;;;;;;5049903;28;20025;-71
2023/12/10 11:21:59;;;;;;;17.27;2.30;;;12.20;99.90;;;;;;5053846;28;20033;-71
2023/12/10 11:24:25;;;;;;;19.33;3.85;;;12.20;99.90;;;;;;5053260;28;20048;-72
2023/12/10 11:26:51;;;;;;;18.77;4.05;;;12.40;99.90;;;;;;5055697;28;20424;-71
2023/12/10 11:29:17;;;;;;;20.58;3.00;;;12.50;99.90;;;;;;5054172;28;20096;-72
2023/12/10 11:31:44;;;;;;;5.75;3.90;;;12.70;99.90;;;;;;5053446;28;20151;-71
2023/12/10 11:34:10;;;;;;;6.78;2.45;;;12.80;99.90;;;;;;5054256;28;20044;-71
2023/12/10 11:36:36;;;;;;;12.57;3.90;;;13.00;99.90;;;;;;5047811;28;20021;-72
2023/12/10 11:39:02;;;;;;;2.83;0.90;;;13.10;99.90;;;;;;5059726;28;20057;-72
2023/12/10 11:41:29;;;;;;;8.77;2.08;;;13.70;99.90;;;;;;5056133;28;20076;-73
2023/12/10 11:43:55;;;;;;;10.98;5.47;;;13.60;99.90;;;;;;5053720;28;20094;-72
2023/12/10 11:46:23;;;;;;;40.33;4.25;;;13.30;99.90;;;;;;5053154;28;20033;-70
2023/12/10 11:48:53;;;;;;;23.92;3.45;;;13.30;99.90;;;;;;5053911;28;20092;-71
2023/12/10 11:51:20;;;;;;;16.35;4.15;;;13.30;99.90;;;;;;5053689;28;20025;-71
2023/12/10 11:53:46;;;;;;;1.55;0.90;;;13.00;99.90;;;;;;5053766;28;20032;-70
2023/12/10 11:56:14;;;;;;;0.00;0.00;;;12.80;99.90;;;;;;5052735;28;20027;-72
2023/12/10 11:58:44;;;;;;;12.77;2.97;;;12.90;99.90;;;;;;5053658;28;20024;-73
2023/12/10 12:01:10;;;;;;;4.50;1.65;;;13.00;99.90;;;;;;5044547;28;20379;-73
2023/12/10 12:03:36;;;;;;;13.63;3.28;;;13.00;99.90;;;;;;5053341;28;20051;-72
2023/12/10 12:06:04;;;;;;;20.58;2.97;;;12.70;99.90;;;;;;5052311;28;20032;-74
2023/12/10 12:08:30;;;;;;;3.25;1.30;;;12.60;99.90;;;;;;5053143;28;20021;-72
2023/12/10 12:10:58;;;;;;;19.45;3.78;;;12.60;99.90;;;;;;5053549;28;20040;-73
2023/12/10 12:13:24;;;;;;;15.88;3.72;;;12.70;99.90;;;;;;5053409;28;20111;-74
2023/12/10 12:15:51;;;;;;;0.40;0.20;;;12.50;99.90;;;;;;5045935;28;20033;-71
2023/12/10 12:18:17;;;;;;;31.45;2.10;;;12.40;99.90;;;;;;5053427;28;20167;-72
2023/12/10 12:20:46;;;;;;;53.40;4.95;;;12.40;99.90;;;;;;5053576;28;20398;-72
2023/12/10 12:23:12;;;;;;;22.60;4.20;;;12.30;99.90;;;;;;5051868;28;20044;-73
2023/12/10 12:25:38;;;;;;;27.75;3.90;;;12.30;99.90;;;;;;5053246;28;20108;-71
2023/12/10 12:28:08;;;;;;;22.17;3.10;;;12.30;99.90;;;;;;5053312;28;20029;-71
2023/12/10 12:30:36;;;;;;;0.38;0.38;;;12.20;99.90;;;;;;5053039;28;20458;-72
2023/12/10 12:33:02;;;;;;;4.65;1.98;;;12.30;99.90;;;;;;5050028;28;20082;-73
2023/12/10 12:35:29;;;;;;;3.63;1.90;;;12.20;99.90;;;;;;5055914;28;20025;-72
2023/12/10 12:37:56;;;;;;;17.95;3.03;;;12.30;99.90;;;;;;5056480;28;20013;-71